Halfway's Hourly Summary for Thursday, March 16, 2017
Hour Temp
(f)
RH
(%)
Solar Rad.
(MJ/m2)
Rainfall
(in)
Wind
(mph)
3/16/2017 12:00 AM 48 68 0 0 5.63
3/16/2017 1:00 AM 48 74 0 0 6.29
3/16/2017 2:00 AM 48 76 0 0 7.25
3/16/2017 3:00 AM 48 84 0 0 8.84
3/16/2017 4:00 AM 47 88 0 0 8.06
3/16/2017 5:00 AM 46 92 0 0 7.48
3/16/2017 6:00 AM 45 93 0 0 5.57
3/16/2017 7:00 AM 48 95 0 0 10.55
3/16/2017 8:00 AM 48 95 0 0 10.78
3/16/2017 9:00 AM 47 95 0.11 0 9.29
3/16/2017 10:00 AM 48 94 0.52 0 11.49
3/16/2017 11:00 AM 54 68 1.61 0 12.35
3/16/2017 12:00 PM 61 49 2.38 0 13.98
3/16/2017 1:00 PM 69 30 2.81 0 13.3
3/16/2017 2:00 PM 75 25 2.86 0 13.27
3/16/2017 3:00 PM 79 16 2.83 0 14.02
3/16/2017 4:00 PM 82 15 2.71 0 14.79
3/16/2017 5:00 PM 84 13 2.22 0 13.02
3/16/2017 6:00 PM 86 5 1.65 0 9.86
3/16/2017 7:00 PM 84 6 0.87 0 9.35
3/16/2017 8:00 PM 78 7 0.24 0 5.48
3/16/2017 9:00 PM 68 16 0 0 4.89
3/16/2017 10:00 PM 60 21 0 0 5.9
3/16/2017 11:00 PM 60 22 0 0 7.8
Data Summary 60 51 20.81 0.00 9.55